Time;durP1;ratioP1;P1;durP2;ratioP2;P2;SDS_P1;SDS_P2;PMS_P1;PMS_P2;Temp;Humidity;BMP_temperature;BMP_pressure;BME280_temperature;BME280_humidity;BME280_pressure;Samples;Min_cycle;Max_cycle;Signal;HPM_P1;HPM_P2
2022/01/28 00:02:01;;;;;;;0.00;0.00;;;3.40;99.90;;;;;;6265929;22;20023;-76
2022/01/28 00:04:27;;;;;;;0.00;0.00;;;3.10;99.90;;;;;;6266173;23;20015;-77
2022/01/28 00:06:58;;;;;;;0.00;0.00;;;3.00;99.90;;;;;;6265604;22;20419;-78
2022/01/28 00:09:26;;;;;;;0.00;0.00;;;3.00;99.90;;;;;;6269832;22;20007;-77
2022/01/28 00:11:52;;;;;;;0.00;0.00;;;3.00;99.90;;;;;;6270303;22;19985;-75
2022/01/28 00:14:50;;;;;;;0.00;0.00;;;3.10;99.90;;;;;;6273936;22;20044;-77
2022/01/28 00:20:51;;;;;;;0.00;0.00;;;2.90;99.90;;;;;;6274062;22;19989;-77
2022/01/28 00:39:47;;;;;;;0.00;0.00;;;2.60;99.90;;;;;;6190959;23;20001;-78
2022/01/28 00:42:13;;;;;;;0.00;0.00;;;2.50;99.90;;;;;;6239324;22;20066;-77
2022/01/28 00:44:39;;;;;;;0.00;0.00;;;2.40;99.90;;;;;;6256599;23;19997;-77
2022/01/28 00:47:04;;;;;;;;;;;2.30;99.90;;;;;;6255370;23;20000;-78
2022/01/28 00:49:30;;;;;;;0.00;0.00;;;2.30;99.90;;;;;;6252910;23;19945;-75
2022/01/28 00:51:56;;;;;;;;;;;2.30;99.90;;;;;;6255623;22;20055;-76
2022/01/28 00:54:23;;;;;;;0.00;0.00;;;2.20;99.90;;;;;;6254325;23;19926;-76
2022/01/28 00:56:49;;;;;;;0.00;0.00;;;2.40;99.90;;;;;;6256346;22;20314;-77
2022/01/28 00:59:15;;;;;;;0.00;0.00;;;2.30;99.90;;;;;;6258791;23;20048;-75
2022/01/28 01:01:41;;;;;;;0.00;0.00;;;2.30;99.90;;;;;;6278343;22;20023;-76
2022/01/28 01:04:07;;;;;;;0.00;0.00;;;2.30;99.90;;;;;;6255932;22;19992;-77
2022/01/28 01:06:34;;;;;;;0.00;0.00;;;2.20;99.90;;;;;;6254823;23;20423;-76
2022/01/28 01:09:00;;;;;;;0.00;0.00;;;2.10;99.90;;;;;;6261642;22;20088;-76
2022/01/28 01:11:27;;;;;;;0.00;0.00;;;2.30;99.90;;;;;;6259945;22;20429;-76
2022/01/28 01:13:54;;;;;;;0.00;0.00;;;2.40;99.90;;;;;;6263246;22;19995;-77
2022/01/28 01:16:32;;;;;;;0.00;0.00;;;2.40;99.90;;;;;;6260254;22;20041;-77
2022/01/28 01:21:29;;;;;;;0.00;0.00;;;2.30;99.90;;;;;;6259247;23;20080;-76
2022/01/28 01:23:57;;;;;;;0.00;0.00;;;2.20;99.90;;;;;;6261622;22;20007;-78
2022/01/28 01:26:42;;;;;;;0.00;0.00;;;2.20;99.90;;;;;;6263305;22;20008;-76
2022/01/28 01:29:11;;;;;;;0.00;0.00;;;2.10;99.90;;;;;;6259478;22;20046;-78
2022/01/28 01:31:40;;;;;;;0.00;0.00;;;2.20;99.90;;;;;;6265186;22;20000;-74
2022/01/28 01:34:27;;;;;;;0.00;0.00;;;2.30;99.90;;;;;;6268943;23;20000;-75
2022/01/28 01:36:52;;;;;;;0.00;0.00;;;2.40;99.90;;;;;;6267569;22;20004;-76
2022/01/28 01:39:28;;;;;;;0.00;0.00;;;2.30;99.90;;;;;;6268745;23;20122;-75
2022/01/28 01:42:04;;;;;;;0.00;0.00;;;2.40;99.90;;;;;;6269226;22;20007;-78
2022/01/28 01:44:49;;;;;;;0.00;0.00;;;2.40;99.90;;;;;;6269614;22;20000;-76
2022/01/28 01:52:50;;;;;;;0.00;0.00;;;2.00;99.90;;;;;;6268495;23;20015;-77
2022/01/28 01:55:16;;;;;;;0.00;0.00;;;1.90;99.90;;;;;;6265516;23;20012;-76
2022/01/28 01:57:43;;;;;;;;;;;1.80;99.90;;;;;;6262671;22;20019;-77
2022/01/28 02:00:09;;;;;;;0.00;0.00;;;2.00;99.90;;;;;;6262289;22;19907;-78
2022/01/28 02:02:35;;;;;;;0.00;0.00;;;2.00;99.90;;;;;;6259522;22;20071;-77
2022/01/28 02:05:00;;;;;;;0.00;0.00;;;1.90;99.90;;;;;;6257662;23;20015;-75
2022/01/28 02:07:26;;;;;;;;;;;1.90;99.90;;;;;;6257026;22;20003;-76
2022/01/28 02:09:52;;;;;;;0.00;0.00;;;1.90;99.90;;;;;;6256690;22;19923;-77
2022/01/28 02:12:18;;;;;;;;;;;1.90;99.90;;;;;;6259695;22;20007;-77
2022/01/28 02:14:43;;;;;;;0.00;0.00;;;1.90;99.90;;;;;;6257399;22;19899;-75
2022/01/28 02:17:09;;;;;;;0.00;0.00;;;1.80;99.90;;;;;;6254753;23;20007;-78
2022/01/28 02:19:36;;;;;;;0.00;0.00;;;1.80;99.90;;;;;;6257867;23;20486;-76
2022/01/28 02:22:02;;;;;;;0.00;0.00;;;1.90;99.90;;;;;;6256172;22;20001;-77
2022/01/28 02:24:34;;;;;;;;;;;2.10;99.90;;;;;;6259464;22;19996;-75
2022/01/28 02:26:59;;;;;;;0.00;0.00;;;2.00;99.90;;;;;;6258846;22;19899;-77
2022/01/28 02:29:33;;;;;;;0.00;0.00;;;2.00;99.90;;;;;;6255544;23;20007;-76
2022/01/28 02:32:01;;;;;;;0.00;0.00;;;1.80;99.90;;;;;;6260199;22;20080;-75
2022/01/28 02:34:26;;;;;;;0.00;0.00;;;1.70;99.90;;;;;;6264680;22;20022;-77
2022/01/28 02:36:54;;;;;;;0.00;0.00;;;1.60;99.90;;;;;;6256849;22;19996;-78
2022/01/28 02:39:20;;;;;;;0.00;0.00;;;1.70;99.90;;;;;;6253331;22;19997;-77
2022/01/28 02:41:49;;;;;;;0.00;0.00;;;1.70;99.90;;;;;;6275203;22;20282;-78
2022/01/28 02:44:23;;;;;;;0.00;0.00;;;1.70;99.90;;;;;;6252284;22;20364;-75
2022/01/28 02:47:00;;;;;;;0.00;0.00;;;1.70;99.90;;;;;;6250236;22;20018;-76
2022/01/28 02:49:33;;;;;;;0.00;0.00;;;1.60;99.90;;;;;;6250963;23;20000;-75
2022/01/28 02:51:59;;;;;;;0.00;0.00;;;1.60;99.90;;;;;;6249864;22;20030;-75
2022/01/28 02:54:25;;;;;;;0.00;0.00;;;1.60;99.90;;;;;;6251506;22;20016;-78
2022/01/28 02:56:53;;;;;;;;;;;1.50;99.90;;;;;;6250014;22;19996;-77
2022/01/28 02:59:19;;;;;;;0.00;0.00;;;1.60;99.90;;;;;;6248634;23;20357;-74
2022/01/28 03:01:45;;;;;;;0.00;0.00;;;1.50;99.90;;;;;;6248775;22;20329;-77
2022/01/28 03:04:24;;;;;;;0.00;0.00;;;1.40;99.90;;;;;;6250165;22;19996;-76
2022/01/28 03:06:50;;;;;;;0.00;0.00;;;1.50;99.90;;;;;;6250877;22;20003;-78
2022/01/28 03:09:20;;;;;;;0.00;0.00;;;1.50;99.90;;;;;;6248410;23;19996;-75
2022/01/28 03:11:58;;;;;;;0.00;0.00;;;1.70;99.90;;;;;;6247542;23;20024;-74
2022/01/28 03:14:37;;;;;;;0.00;0.00;;;1.70;99.90;;;;;;6249698;22;20000;-76
2022/01/28 03:19:42;;;;;;;0.00;0.00;;;1.50;99.90;;;;;;6248680;22;20008;-75
2022/01/28 03:22:07;;;;;;;0.00;0.00;;;1.50;99.90;;;;;;6247565;22;20010;-77
2022/01/28 03:24:33;;;;;;;0.00;0.00;;;1.40;99.90;;;;;;6248249;22;20075;-76
2022/01/28 03:27:05;;;;;;;0.00;0.00;;;1.40;99.90;;;;;;6247334;23;20452;-75
2022/01/28 03:29:31;;;;;;;0.00;0.00;;;1.50;99.90;;;;;;6246708;22;20432;-77
2022/01/28 03:31:56;;;;;;;0.00;0.00;;;1.60;99.90;;;;;;6244510;23;20058;-78
2022/01/28 03:34:22;;;;;;;0.00;0.00;;;1.40;99.90;;;;;;6245918;23;19996;-77
2022/01/28 03:36:50;;;;;;;;;;;1.40;99.90;;;;;;6246327;22;19996;-76
2022/01/28 03:39:16;;;;;;;0.00;0.00;;;1.30;99.90;;;;;;6246099;22;19906;-77
2022/01/28 03:41:42;;;;;;;0.00;0.00;;;1.40;99.90;;;;;;6245420;22;20068;-77
2022/01/28 03:44:07;;;;;;;;;;;1.50;99.90;;;;;;6247744;23;20024;-77
2022/01/28 03:46:33;;;;;;;0.00;0.00;;;1.50;99.90;;;;;;6247062;22;19906;-78
2022/01/28 03:48:59;;;;;;;0.00;0.00;;;1.50;99.90;;;;;;6244688;22;20003;-77
2022/01/28 03:51:25;;;;;;;;;;;1.70;99.90;;;;;;6246985;22;20000;-77
2022/01/28 03:53:50;;;;;;;0.00;0.00;;;1.80;99.90;;;;;;6245367;22;19938;-77
2022/01/28 03:56:16;;;;;;;0.00;0.00;;;1.60;99.90;;;;;;6245033;22;20311;-75
2022/01/28 03:58:44;;;;;;;0.00;0.00;;;1.50;99.90;;;;;;6246617;23;20004;-76
2022/01/28 04:01:16;;;;;;;0.00;0.00;;;1.50;99.90;;;;;;6245836;23;20000;-76
2022/01/28 04:03:49;;;;;;;0.00;0.00;;;1.40;99.90;;;;;;6247084;22;20364;-75
2022/01/28 04:11:33;;;;;;;0.00;0.00;;;1.60;99.90;;;;;;6264400;23;20015;-76
2022/01/28 04:14:14;;;;;;;0.00;0.00;;;1.50;99.90;;;;;;6263424;22;20055;-76
2022/01/28 04:19:24;;;;;;;0.00;0.00;;;1.30;99.90;;;;;;6264583;23;20019;-75
2022/01/28 04:21:50;;;;;;;0.00;0.00;;;1.40;99.90;;;;;;6260965;23;20004;-75
2022/01/28 04:24:16;;;;;;;0.00;0.00;;;1.40;99.90;;;;;;6260534;22;20297;-77
2022/01/28 04:26:43;;;;;;;0.00;0.00;;;1.30;99.90;;;;;;6251093;22;20023;-77
2022/01/28 04:29:11;;;;;;;0.00;0.00;;;1.40;99.90;;;;;;6247811;22;20030;-76
2022/01/28 04:31:41;;;;;;;0.00;0.00;;;1.30;99.90;;;;;;6246085;22;20031;-77
2022/01/28 04:34:07;;;;;;;0.00;0.00;;;1.20;99.90;;;;;;6243503;23;20083;-76
2022/01/28 04:36:38;;;;;;;0.00;0.00;;;1.20;99.90;;;;;;6244895;22;20385;-76
2022/01/28 04:42:16;;;;;;;0.00;0.00;;;1.10;99.90;;;;;;6217021;22;20318;-76
2022/01/28 04:50:01;;;;;;;0.00;0.00;;;1.20;99.90;;;;;;6244551;22;20007;-76
2022/01/28 04:55:26;;;;;;;0.00;0.00;;;1.20;99.90;;;;;;6244620;23;20089;-75
2022/01/28 04:58:09;;;;;;;0.00;0.00;;;1.30;99.90;;;;;;6243275;23;20444;-75
2022/01/28 05:11:28;;;;;;;0.00;0.00;;;1.00;99.90;;;;;;6246354;23;20371;-76
2022/01/28 05:25:27;;;;;;;0.00;0.00;;;1.30;99.90;;;;;;6246630;23;20057;-76
2022/01/28 05:27:46;;;;;;;0.00;0.00;;;1.30;99.90;;;;;;6246979;23;20000;-76
2022/01/28 05:30:12;;;;;;;0.00;0.00;;;1.10;99.90;;;;;;6247328;22;20061;-75
2022/01/28 05:32:37;;;;;;;;;;;1.00;99.90;;;;;;6247073;23;20000;-76
2022/01/28 05:35:04;;;;;;;0.00;0.00;;;1.00;99.90;;;;;;6245273;22;19900;-75
2022/01/28 05:37:30;;;;;;;0.00;0.00;;;0.90;99.90;;;;;;6247952;22;19996;-76
2022/01/28 05:39:55;;;;;;;;;;;0.90;99.90;;;;;;6251656;23;20042;-77
2022/01/28 05:42:21;;;;;;;0.00;0.00;;;0.90;99.90;;;;;;6249301;23;20324;-75
2022/01/28 05:44:46;;;;;;;;;;;0.90;99.90;;;;;;6254407;23;20444;-77
2022/01/28 05:47:15;;;;;;;0.00;0.00;;;1.00;99.90;;;;;;6253936;23;20189;-76
2022/01/28 05:49:42;;;;;;;0.00;0.00;;;1.00;99.90;;;;;;6251774;22;20129;-77
2022/01/28 05:52:08;;;;;;;0.00;0.00;;;0.90;99.90;;;;;;6277378;22;20459;-76
2022/01/28 05:54:35;;;;;;;0.00;0.00;;;0.90;99.90;;;;;;6255140;22;20107;-75
2022/01/28 05:57:00;;;;;;;0.00;0.00;;;1.00;99.90;;;;;;6257666;22;20000;-77
2022/01/28 05:59:26;;;;;;;;;;;0.90;99.90;;;;;;6261133;22;20329;-75
2022/01/28 06:01:52;;;;;;;0.00;0.00;;;0.90;99.90;;;;;;6260703;23;19935;-76
2022/01/28 06:04:19;;;;;;;0.00;0.00;;;0.90;99.90;;;;;;6261817;23;20000;-76
2022/01/28 06:06:45;;;;;;;0.00;0.00;;;0.80;99.90;;;;;;6259864;22;20000;-76
2022/01/28 06:09:11;;;;;;;;;;;0.70;99.90;;;;;;6259881;23;20079;-78
2022/01/28 06:11:37;;;;;;;0.00;0.00;;;0.70;99.90;;;;;;6261537;23;19899;-75
2022/01/28 06:14:03;;;;;;;0.00;0.00;;;0.60;99.90;;;;;;6257392;22;20027;-76
2022/01/28 06:16:29;;;;;;;;;;;0.50;99.90;;;;;;6252610;22;20004;-77
2022/01/28 06:18:55;;;;;;;0.00;0.00;;;0.50;99.90;;;;;;6256840;23;19900;-77
2022/01/28 06:21:20;;;;;;;0.00;0.00;;;0.50;99.90;;;;;;6257869;23;20028;-77
2022/01/28 06:23:46;;;;;;;;;;;0.50;99.90;;;;;;6256360;23;19997;-77
2022/01/28 06:26:12;;;;;;;0.00;0.00;;;0.60;99.90;;;;;;6256931;23;19899;-76
2022/01/28 06:28:37;;;;;;;;;;;0.60;99.90;;;;;;6256771;22;20007;-78
2022/01/28 06:31:03;;;;;;;0.00;0.00;;;0.70;99.90;;;;;;6258753;23;19942;-76
2022/01/28 06:33:29;;;;;;;0.00;0.00;;;0.80;99.90;;;;;;6253673;23;20011;-77
2022/01/28 06:35:54;;;;;;;;;;;0.80;99.90;;;;;;6250615;22;20228;-76
2022/01/28 06:38:20;;;;;;;0.00;0.00;;;0.70;99.90;;;;;;6250827;22;19900;-76
2022/01/28 06:40:46;;;;;;;0.00;0.00;;;0.70;99.90;;;;;;6249630;22;20001;-77
2022/01/28 06:43:12;;;;;;;;;;;0.60;99.90;;;;;;6248381;23;20007;-75
2022/01/28 06:45:41;;;;;;;0.00;0.00;;;0.80;99.90;;;;;;6249470;22;19907;-77
2022/01/28 06:48:11;;;;;;;0.00;0.00;;;0.80;99.90;;;;;;6248308;22;20415;-76
2022/01/28 06:50:42;;;;;;;0.00;0.00;;;0.60;99.90;;;;;;6250789;22;20000;-77
2022/01/28 06:53:09;;;;;;;0.00;0.00;;;0.50;99.90;;;;;;6248825;22;20344;-77
2022/01/28 06:55:35;;;;;;;0.00;0.00;;;0.60;99.90;;;;;;6247742;22;20017;-77
2022/01/28 06:58:02;;;;;;;0.00;0.00;;;0.60;99.90;;;;;;6249571;22;20103;-78
2022/01/28 07:00:28;;;;;;;0.00;0.00;;;0.50;99.90;;;;;;6247452;23;20012;-77
2022/01/28 07:02:54;;;;;;;;;;;0.60;99.90;;;;;;6248068;22;20407;-77
2022/01/28 07:05:19;;;;;;;0.00;0.00;;;0.70;99.90;;;;;;6248132;22;19969;-76
2022/01/28 07:07:47;;;;;;;0.00;0.00;;;0.70;99.90;;;;;;6247402;22;20004;-78
2022/01/28 07:10:13;;;;;;;0.00;0.00;;;0.60;99.90;;;;;;6245910;22;20004;-76
2022/01/28 07:12:38;;;;;;;0.00;0.00;;;0.50;99.90;;;;;;6245020;23;19996;-76
2022/01/28 07:15:04;;;;;;;;;;;0.50;99.90;;;;;;6247738;22;20011;-75
2022/01/28 07:17:30;;;;;;;0.00;0.00;;;0.40;99.90;;;;;;6246882;22;19899;-77
2022/01/28 07:19:56;;;;;;;0.00;0.00;;;0.40;99.90;;;;;;6247716;22;20417;-78
2022/01/28 07:22:21;;;;;;;;;;;0.40;99.90;;;;;;6250104;23;20432;-77
2022/01/28 07:24:47;;;;;;;0.00;0.00;;;0.30;99.90;;;;;;6249348;23;20331;-76
2022/01/28 07:27:19;;;;;;;;;;;0.30;99.90;;;;;;6255658;23;20015;-77
2022/01/28 07:29:49;;;;;;;0.00;0.00;;;0.20;99.90;;;;;;6254447;22;19900;-78
2022/01/28 07:32:15;;;;;;;0.00;0.00;;;0.20;99.90;;;;;;6249179;22;20038;-76
2022/01/28 07:34:41;;;;;;;0.00;0.00;;;0.20;99.90;;;;;;6249047;22;19996;-75
2022/01/28 07:37:06;;;;;;;;;;;0.20;99.90;;;;;;6252793;23;20002;-78
2022/01/28 07:39:32;;;;;;;0.00;0.00;;;0.20;99.90;;;;;;6250681;23;19982;-75
2022/01/28 07:41:58;;;;;;;;;;;0.30;99.90;;;;;;6252724;23;20425;-75
2022/01/28 07:44:24;;;;;;;0.00;0.00;;;0.20;99.90;;;;;;6253089;23;20360;-77
2022/01/28 07:46:49;;;;;;;;;;;0.30;99.90;;;;;;6258365;22;20001;-75
2022/01/28 07:49:15;;;;;;;0.00;0.00;;;0.30;99.90;;;;;;6246510;22;19899;-77
2022/01/28 07:51:41;;;;;;;;;;;0.40;99.90;;;;;;6246726;22;20008;-77
2022/01/28 07:54:08;;;;;;;0.00;0.00;;;0.40;99.90;;;;;;6248702;22;20227;-76
2022/01/28 07:56:34;;;;;;;0.00;0.00;;;0.30;99.90;;;;;;6248039;22;20015;-76
2022/01/28 07:58:59;;;;;;;;;;;0.40;99.90;;;;;;6246940;23;20238;-77
2022/01/28 08:01:25;;;;;;;0.00;0.00;;;0.40;99.90;;;;;;6248135;23;19907;-76
2022/01/28 08:03:51;;;;;;;0.00;0.00;;;0.40;99.90;;;;;;6253012;22;20014;-75
2022/01/28 08:06:16;;;;;;;;;;;0.40;99.90;;;;;;6258295;23;20024;-75
2022/01/28 08:08:42;;;;;;;0.00;0.00;;;0.40;99.90;;;;;;6253647;23;19900;-75
2022/01/28 08:11:08;;;;;;;0.00;0.00;;;0.50;99.90;;;;;;6255386;23;20007;-77
2022/01/28 08:13:33;;;;;;;;;;;0.50;99.90;;;;;;6258404;23;20031;-76
2022/01/28 08:16:02;;;;;;;0.00;0.00;;;0.50;99.90;;;;;;6255649;23;19900;-75
2022/01/28 08:18:27;;;;;;;0.00;0.00;;;0.40;99.90;;;;;;6250132;22;20010;-75
2022/01/28 08:20:53;;;;;;;;;;;0.60;99.90;;;;;;6248596;22;20424;-77
2022/01/28 08:23:19;;;;;;;0.00;0.00;;;0.50;99.90;;;;;;6245453;23;19904;-76
2022/01/28 08:25:45;;;;;;;;;;;0.50;99.90;;;;;;6246834;23;20409;-74
2022/01/28 08:28:11;;;;;;;0.00;0.00;;;0.50;99.90;;;;;;6252618;22;19944;-76
2022/01/28 08:30:39;;;;;;;0.00;0.00;;;0.50;99.90;;;;;;6252824;22;19996;-78
2022/01/28 08:33:06;;;;;;;0.00;0.00;;;0.40;99.90;;;;;;6247260;22;20439;-74
2022/01/28 08:35:36;;;;;;;0.00;0.00;;;0.60;99.90;;;;;;6243440;23;20027;-76
2022/01/28 08:38:03;;;;;;;0.00;0.00;;;0.80;99.90;;;;;;6245389;22;20131;-75
2022/01/28 08:40:30;;;;;;;0.00;0.00;;;0.80;99.90;;;;;;6246058;22;20405;-76
2022/01/28 08:42:56;;;;;;;0.00;0.00;;;0.90;99.90;;;;;;6242706;23;20063;-76
2022/01/28 08:45:22;;;;;;;0.00;0.00;;;1.20;99.90;;;;;;6246741;22;20012;-77
2022/01/28 08:47:48;;;;;;;0.00;0.00;;;1.30;99.90;;;;;;6246193;22;20075;-76
2022/01/28 08:50:15;;;;;;;0.00;0.00;;;1.20;99.90;;;;;;6244217;23;20462;-77
2022/01/28 08:52:40;;;;;;;0.00;0.00;;;1.20;99.90;;;;;;6245337;23;19996;-77
2022/01/28 08:55:07;;;;;;;0.00;0.00;;;1.00;99.90;;;;;;6245744;22;20211;-76
2022/01/28 08:57:32;;;;;;;;;;;1.40;99.90;;;;;;6246612;22;20000;-75
2022/01/28 08:59:58;;;;;;;0.00;0.00;;;1.50;99.90;;;;;;6245813;22;19906;-76
2022/01/28 09:02:26;;;;;;;;;;;1.80;99.90;;;;;;6247839;22;19997;-77
2022/01/28 09:04:52;;;;;;;0.00;0.00;;;2.00;99.90;;;;;;6244701;23;19906;-76
2022/01/28 09:07:19;;;;;;;0.00;0.00;;;2.20;99.90;;;;;;6245221;23;20000;-74
2022/01/28 09:09:51;;;;;;;0.00;0.00;;;2.40;99.90;;;;;;6246902;22;20069;-76
2022/01/28 09:12:40;;;;;;;0.00;0.00;;;2.60;99.90;;;;;;6243126;23;20008;-76
2022/01/28 09:15:09;;;;;;;0.00;0.00;;;2.70;99.90;;;;;;6243671;22;20483;-76
2022/01/28 09:17:34;;;;;;;0.00;0.00;;;2.90;99.90;;;;;;6245703;23;20054;-77
2022/01/28 09:20:02;;;;;;;0.00;0.00;;;3.10;99.90;;;;;;6246057;22;20004;-77
2022/01/28 09:22:27;;;;;;;0.00;0.00;;;3.30;99.90;;;;;;6244007;22;20032;-76
2022/01/28 09:24:53;;;;;;;0.00;0.00;;;3.50;99.90;;;;;;6246783;22;20004;-77
2022/01/28 09:27:19;;;;;;;0.00;0.00;;;3.60;99.90;;;;;;6243436;23;20004;-74
2022/01/28 09:29:44;;;;;;;0.00;0.00;;;3.70;99.90;;;;;;6242962;23;20000;-77
2022/01/28 09:32:10;;;;;;;0.00;0.00;;;3.70;99.90;;;;;;6246837;23;20000;-76
2022/01/28 09:34:36;;;;;;;0.00;0.00;;;3.80;99.90;;;;;;6244246;22;20000;-77
2022/01/28 09:37:02;;;;;;;0.00;0.00;;;3.80;99.90;;;;;;6244090;23;20004;-76
2022/01/28 09:39:30;;;;;;;0.00;0.00;;;4.00;99.90;;;;;;6245357;22;20127;-76
2022/01/28 09:42:01;;;;;;;0.00;0.00;;;3.80;99.90;;;;;;6242767;23;20015;-76
2022/01/28 09:44:30;;;;;;;0.00;0.00;;;3.70;99.90;;;;;;6245099;23;20000;-77
2022/01/28 09:46:59;;;;;;;0.00;0.00;;;3.70;99.90;;;;;;6245837;22;20424;-76
2022/01/28 09:49:26;;;;;;;0.00;0.00;;;4.00;99.90;;;;;;6244534;22;20004;-75
2022/01/28 09:51:53;;;;;;;0.00;0.00;;;4.10;99.90;;;;;;6244489;22;20015;-76
2022/01/28 09:54:18;;;;;;;;;;;4.10;99.90;;;;;;6245960;22;20433;-77
2022/01/28 09:56:44;;;;;;;0.00;0.00;;;4.10;99.90;;;;;;6239427;22;19914;-76
2022/01/28 09:59:10;;;;;;;0.00;0.00;;;3.70;99.90;;;;;;6242756;23;20011;-76
2022/01/28 10:01:53;;;;;;;0.00;0.00;;;3.60;99.90;;;;;;6241772;23;20106;-77
2022/01/28 10:04:19;;;;;;;0.00;0.00;;;3.60;99.90;;;;;;6242617;22;20000;-75
2022/01/28 10:06:46;;;;;;;0.00;0.00;;;3.70;99.90;;;;;;6246351;22;20008;-76
2022/01/28 10:09:15;;;;;;;0.00;0.00;;;3.80;99.90;;;;;;6241280;22;20421;-76
2022/01/28 10:11:44;;;;;;;0.00;0.00;;;4.00;99.90;;;;;;6247631;22;20011;-75
2022/01/28 10:14:14;;;;;;;0.00;0.00;;;4.20;99.90;;;;;;6247104;22;20027;-77
2022/01/28 10:16:40;;;;;;;0.00;0.00;;;4.40;99.90;;;;;;6242108;23;20079;-76
2022/01/28 10:19:11;;;;;;;0.00;0.00;;;4.50;99.90;;;;;;6268376;22;20024;-76
2022/01/28 10:21:43;;;;;;;0.00;0.00;;;4.80;99.90;;;;;;6243891;22;20012;-77
2022/01/28 10:24:15;;;;;;;0.00;0.00;;;5.00;99.90;;;;;;6243161;23;20012;-74
2022/01/28 10:26:48;;;;;;;0.00;0.00;;;5.10;99.90;;;;;;6244163;23;20321;-75
2022/01/28 10:29:37;;;;;;;0.00;0.00;;;5.20;99.90;;;;;;6243940;22;20107;-76
2022/01/28 10:32:06;;;;;;;0.00;0.00;;;5.40;99.90;;;;;;6242711;23;20011;-75
2022/01/28 10:34:42;;;;;;;0.00;0.00;;;5.60;99.90;;;;;;6242731;22;20004;-77
2022/01/28 10:37:18;;;;;;;;;;;5.70;99.90;;;;;;6244391;22;20080;-77
2022/01/28 10:39:57;;;;;;;0.00;0.00;;;5.90;99.90;;;;;;6244783;22;19906;-75
2022/01/28 10:42:28;;;;;;;0.00;0.00;;;6.00;99.90;;;;;;6245723;23;20014;-75
2022/01/28 10:44:57;;;;;;;0.00;0.00;;;6.10;99.90;;;;;;6244758;23;20050;-76
2022/01/28 10:47:32;;;;;;;0.00;0.00;;;6.20;99.90;;;;;;6243136;22;19997;-76
2022/01/28 10:49:58;;;;;;;0.00;0.00;;;6.20;99.90;;;;;;6244132;23;20046;-77
2022/01/28 10:52:34;;;;;;;0.00;0.00;;;6.30;99.90;;;;;;6245694;22;20000;-75
2022/01/28 10:55:01;;;;;;;0.00;0.00;;;6.30;99.90;;;;;;6267561;22;20062;-74
2022/01/28 10:57:30;;;;;;;0.00;0.00;;;6.30;99.90;;;;;;6245372;23;19996;-76
2022/01/28 10:59:56;;;;;;;0.00;0.00;;;6.30;99.90;;;;;;6244724;22;20004;-75
2022/01/28 11:02:25;;;;;;;0.00;0.00;;;6.20;99.90;;;;;;6243677;22;20038;-78
2022/01/28 11:04:53;;;;;;;0.00;0.00;;;6.20;99.90;;;;;;6244577;22;20298;-77
2022/01/28 11:07:18;;;;;;;0.00;0.00;;;6.20;99.90;;;;;;6243929;22;20004;-75
2022/01/28 11:09:46;;;;;;;0.00;0.00;;;6.30;99.90;;;;;;6243030;23;20494;-77
2022/01/28 11:12:12;;;;;;;0.00;0.00;;;6.40;99.90;;;;;;6240509;22;20034;-75
2022/01/28 11:14:38;;;;;;;0.00;0.00;;;6.50;99.90;;;;;;6242007;22;20432;-75
2022/01/28 11:17:04;;;;;;;0.00;0.00;;;6.50;99.90;;;;;;6245114;22;20003;-76
2022/01/28 11:19:33;;;;;;;0.00;0.00;;;6.60;99.90;;;;;;6243945;22;20007;-77
2022/01/28 11:22:17;;;;;;;0.00;0.00;;;6.80;99.90;;;;;;6246129;22;20024;-79
2022/01/28 11:25:01;;;;;;;0.00;0.00;;;6.80;99.90;;;;;;6244905;23;20000;-77
2022/01/28 11:27:33;;;;;;;0.00;0.00;;;7.00;99.90;;;;;;6246416;22;20433;-77
2022/01/28 11:30:17;;;;;;;0.00;0.00;;;7.20;99.90;;;;;;6244476;22;19996;-76
2022/01/28 11:33:02;;;;;;;0.00;0.00;;;7.10;99.90;;;;;;6246037;23;20004;-77
2022/01/28 11:35:37;;;;;;;0.00;0.00;;;7.00;99.90;;;;;;6245823;23;20008;-74
2022/01/28 11:38:26;;;;;;;0.00;0.00;;;7.00;99.90;;;;;;6246343;22;20008;-77
2022/01/28 11:41:10;;;;;;;0.00;0.00;;;7.00;99.90;;;;;;6245799;22;20012;-77
2022/01/28 11:43:45;;;;;;;0.00;0.00;;;7.10;99.90;;;;;;6245573;22;20032;-77
2022/01/28 11:46:22;;;;;;;0.00;0.00;;;7.20;99.90;;;;;;6246394;22;20000;-76
2022/01/28 11:48:52;;;;;;;0.00;0.00;;;7.20;99.90;;;;;;6243543;22;20095;-76
2022/01/28 11:51:21;;;;;;;0.00;0.00;;;7.30;99.90;;;;;;6245690;23;20344;-73
2022/01/28 11:53:58;;;;;;;0.00;0.00;;;7.40;99.90;;;;;;6244026;23;20019;-77
2022/01/28 11:56:25;;;;;;;0.00;0.00;;;7.60;99.90;;;;;;6245566;22;20452;-75
2022/01/28 11:59:01;;;;;;;0.00;0.00;;;7.90;99.90;;;;;;6248442;22;20042;-76
2022/01/28 12:01:36;;;;;;;0.00;0.00;;;8.10;99.90;;;;;;6240775;23;20012;-77
2022/01/28 12:04:30;;;;;;;0.00;0.00;;;8.40;99.90;;;;;;6245285;23;20468;-75
2022/01/28 12:07:18;;;;;;;0.00;0.00;;;8.70;99.90;;;;;;6246599;22;20004;-77
2022/01/28 12:09:53;;;;;;;0.00;0.00;;;9.00;99.90;;;;;;6246671;22;20008;-76
2022/01/28 12:12:41;;;;;;;0.00;0.00;;;9.10;99.90;;;;;;6247543;22;20397;-76
2022/01/28 12:15:14;;;;;;;0.00;0.00;;;9.10;99.90;;;;;;6244343;22;20062;-76
2022/01/28 12:17:45;;;;;;;0.00;0.00;;;9.30;99.90;;;;;;6244136;23;20085;-76
2022/01/28 12:20:14;;;;;;;0.00;0.00;;;9.40;99.90;;;;;;6245255;22;19997;-76
2022/01/28 12:22:59;;;;;;;0.00;0.00;;;9.60;99.90;;;;;;6240675;23;20083;-76
2022/01/28 12:25:36;;;;;;;0.00;0.00;;;9.50;99.90;;;;;;6245493;23;20008;-75
2022/01/28 12:28:23;;;;;;;0.00;0.00;;;9.30;99.90;;;;;;6245159;23;20079;-76
2022/01/28 12:31:05;;;;;;;0.00;0.00;;;9.30;99.90;;;;;;6244843;23;20012;-75
2022/01/28 12:33:37;;;;;;;0.00;0.00;;;9.10;99.90;;;;;;6245253;22;20427;-77
2022/01/28 12:36:09;;;;;;;0.00;0.00;;;9.00;99.90;;;;;;6245157;22;20003;-76
2022/01/28 12:38:42;;;;;;;0.00;0.00;;;8.90;99.90;;;;;;6245028;22;20026;-76
2022/01/28 12:41:09;;;;;;;0.00;0.00;;;8.60;99.90;;;;;;6245697;22;20012;-77
2022/01/28 12:43:38;;;;;;;0.00;0.00;;;8.40;99.90;;;;;;6243447;22;20029;-73
2022/01/28 12:46:07;;;;;;;0.00;0.00;;;8.30;99.90;;;;;;6244707;22;20023;-75
2022/01/28 12:48:34;;;;;;;0.00;0.00;;;8.20;99.90;;;;;;6246203;22;20000;-75
2022/01/28 12:51:01;;;;;;;;;;;8.20;99.90;;;;;;6246861;23;20000;-74
2022/01/28 12:53:39;;;;;;;0.00;0.00;;;8.30;99.90;;;;;;6246933;23;19965;-77
2022/01/28 12:56:09;;;;;;;0.00;0.00;;;8.30;99.90;;;;;;6244161;22;20000;-77
2022/01/28 12:58:37;;;;;;;0.00;0.00;;;8.40;99.90;;;;;;6245679;22;20031;-76
2022/01/28 13:01:15;;;;;;;0.00;0.00;;;8.30;99.90;;;;;;6246265;22;20043;-76
2022/01/28 13:04:01;;;;;;;0.00;0.00;;;8.30;99.90;;;;;;6244041;22;20000;-77
2022/01/28 13:09:24;;;;;;;0.00;0.00;;;8.40;99.90;;;;;;6245416;22;20000;-77
2022/01/28 13:12:03;;;;;;;0.00;0.00;;;8.50;99.90;;;;;;6245356;22;20004;-75
2022/01/28 13:14:30;;;;;;;0.00;0.00;;;8.70;99.90;;;;;;6245409;22;20301;-76
2022/01/28 13:16:57;;;;;;;0.00;0.00;;;8.90;99.90;;;;;;6243802;22;20008;-76
2022/01/28 13:19:24;;;;;;;0.00;0.00;;;9.00;99.90;;;;;;6244382;23;20020;-77
2022/01/28 13:21:51;;;;;;;0.00;0.00;;;9.10;99.90;;;;;;6243918;22;20077;-75
2022/01/28 13:24:17;;;;;;;;;;;9.20;99.90;;;;;;6245511;22;20000;-77
2022/01/28 13:27:05;;;;;;;0.00;0.00;;;9.20;99.90;;;;;;6243665;23;19899;-76
2022/01/28 13:29:38;;;;;;;0.00;0.00;;;9.20;99.90;;;;;;6243896;22;20000;-75
2022/01/28 13:32:08;;;;;;;0.00;0.00;;;9.40;99.90;;;;;;6243655;22;20000;-74
2022/01/28 13:34:49;;;;;;;0.00;0.00;;;9.50;99.90;;;;;;6243917;22;20345;-76
2022/01/28 13:37:38;;;;;;;0.00;0.00;;;9.60;99.90;;;;;;6244065;22;20002;-78
2022/01/28 13:40:26;;;;;;;0.00;0.00;;;9.60;99.90;;;;;;6246305;22;19993;-76
2022/01/28 13:43:15;;;;;;;0.00;0.00;;;9.80;99.90;;;;;;6253552;22;20417;-76
2022/01/28 13:45:53;;;;;;;0.00;0.00;;;9.90;99.90;;;;;;6246396;22;20000;-77
2022/01/28 13:48:34;;;;;;;0.00;0.00;;;9.90;99.90;;;;;;6242149;23;20008;-75
2022/01/28 13:51:12;;;;;;;0.00;0.00;;;10.10;99.90;;;;;;6245407;22;20336;-75
2022/01/28 13:56:33;;;;;;;0.00;0.00;;;10.20;99.90;;;;;;6244652;22;20032;-75
2022/01/28 13:58:59;;;;;;;0.00;0.00;;;10.20;99.90;;;;;;6245584;22;20012;-76
2022/01/28 14:01:27;;;;;;;0.00;0.00;;;10.30;99.90;;;;;;6244672;22;20368;-78
2022/01/28 14:03:58;;;;;;;0.00;0.00;;;10.40;99.90;;;;;;6244032;22;20032;-77
2022/01/28 14:06:44;;;;;;;0.00;0.00;;;10.50;99.90;;;;;;6243241;23;20004;-76
2022/01/28 14:09:15;;;;;;;0.00;0.00;;;10.60;99.90;;;;;;6242824;22;20416;-77
2022/01/28 14:11:44;;;;;;;0.00;0.00;;;10.60;99.90;;;;;;6244854;22;20412;-77
2022/01/28 14:14:14;;;;;;;0.00;0.00;;;10.70;99.90;;;;;;6243798;22;20095;-76
2022/01/28 14:16:40;;;;;;;0.00;0.00;;;10.80;99.90;;;;;;6241531;23;20036;-74
2022/01/28 14:19:05;;;;;;;0.00;0.00;;;11.00;99.90;;;;;;6244502;22;20004;-76
2022/01/28 14:21:31;;;;;;;0.00;0.00;;;10.80;99.90;;;;;;6242253;23;20083;-76
2022/01/28 14:23:57;;;;;;;0.00;0.00;;;10.70;99.90;;;;;;6245098;22;20000;-75
2022/01/28 14:26:39;;;;;;;0.00;0.00;;;10.60;99.90;;;;;;6245031;23;20414;-76
2022/01/28 14:29:46;;;;;;;0.00;0.00;;;10.50;99.90;;;;;;6242146;23;20012;-76
2022/01/28 14:32:24;;;;;;;0.00;0.00;;;10.40;99.90;;;;;;6246525;23;20008;-76
2022/01/28 14:34:52;;;;;;;0.00;0.00;;;10.40;99.90;;;;;;6245524;22;20428;-76
2022/01/28 14:37:19;;;;;;;0.00;0.00;;;10.20;99.90;;;;;;6247566;22;20449;-76
2022/01/28 14:39:45;;;;;;;0.00;0.00;;;10.20;99.90;;;;;;6247289;22;20054;-76